sensor_id;sensor_type;location;lat;lon;timestamp;pressure;altitude;pressure_sealevel;temperature;humidity
77574;BME280;66710;48.868;9.080;2023-04-04T00:01:01;98868.47;;;-0.44;62.71
77574;BME280;66710;48.868;9.080;2023-04-04T00:03:26;98871.88;;;-0.50;62.28
77574;BME280;66710;48.868;9.080;2023-04-04T00:05:51;98868.91;;;-0.55;62.86
77574;BME280;66710;48.868;9.080;2023-04-04T00:08:17;98857.56;;;-0.58;62.80
77574;BME280;66710;48.868;9.080;2023-04-04T00:10:42;98864.81;;;-0.66;63.55
77574;BME280;66710;48.868;9.080;2023-04-04T00:13:07;98862.66;;;-0.71;63.99
77574;BME280;66710;48.868;9.080;2023-04-04T00:15:33;98854.53;;;-0.78;64.29
77574;BME280;66710;48.868;9.080;2023-04-04T00:18:01;98856.38;;;-0.78;64.41
77574;BME280;66710;48.868;9.080;2023-04-04T00:20:26;98850.53;;;-0.82;64.16
77574;BME280;66710;48.868;9.080;2023-04-04T00:22:51;98853.56;;;-0.85;64.58
77574;BME280;66710;48.868;9.080;2023-04-04T00:25:17;98852.81;;;-0.93;64.77
77574;BME280;66710;48.868;9.080;2023-04-04T00:27:42;98850.97;;;-0.93;64.92
77574;BME280;66710;48.868;9.080;2023-04-04T00:30:08;98850.13;;;-0.93;65.01
77574;BME280;66710;48.868;9.080;2023-04-04T00:32:33;98847.63;;;-0.95;64.64
77574;BME280;66710;48.868;9.080;2023-04-04T00:34:58;98843.75;;;-0.92;64.13
77574;BME280;66710;48.868;9.080;2023-04-04T00:37:24;98845.63;;;-0.93;64.16
77574;BME280;66710;48.868;9.080;2023-04-04T00:39:49;98834.78;;;-1.00;64.85
77574;BME280;66710;48.868;9.080;2023-04-04T00:42:14;98833.13;;;-1.01;65.04
77574;BME280;66710;48.868;9.080;2023-04-04T00:44:39;98840.47;;;-1.03;65.47
77574;BME280;66710;48.868;9.080;2023-04-04T00:47:05;98837.97;;;-1.04;65.09
77574;BME280;66710;48.868;9.080;2023-04-04T00:49:31;98832.38;;;-1.09;65.74
77574;BME280;66710;48.868;9.080;2023-04-04T00:51:57;98830.03;;;-1.12;65.89
77574;BME280;66710;48.868;9.080;2023-04-04T00:54:23;98828.69;;;-1.17;65.79
77574;BME280;66710;48.868;9.080;2023-04-04T00:56:49;98830.72;;;-1.19;65.89
77574;BME280;66710;48.868;9.080;2023-04-04T00:59:19;98828.91;;;-1.18;65.23
77574;BME280;66710;48.868;9.080;2023-04-04T01:01:46;98830.25;;;-1.22;65.69
77574;BME280;66710;48.868;9.080;2023-04-04T01:04:11;98828.78;;;-1.25;65.93
77574;BME280;66710;48.868;9.080;2023-04-04T01:06:37;98829.59;;;-1.24;65.83
77574;BME280;66710;48.868;9.080;2023-04-04T01:09:03;98828.78;;;-1.25;65.85
77574;BME280;66710;48.868;9.080;2023-04-04T01:11:28;98825.63;;;-1.28;65.89
77574;BME280;66710;48.868;9.080;2023-04-04T01:13:53;98826.75;;;-1.23;65.68
77574;BME280;66710;48.868;9.080;2023-04-04T01:16:19;98819.56;;;-1.22;65.35
77574;BME280;66710;48.868;9.080;2023-04-04T01:18:47;98818.78;;;-1.31;66.02
77574;BME280;66710;48.868;9.080;2023-04-04T01:21:13;98818.78;;;-1.31;65.53
77574;BME280;66710;48.868;9.080;2023-04-04T01:26:15;98818.59;;;-1.29;65.92
77574;BME280;66710;48.868;9.080;2023-04-04T01:28:40;98819.66;;;-1.39;66.22
77574;BME280;66710;48.868;9.080;2023-04-04T01:31:09;98814.50;;;-1.40;66.39
77574;BME280;66710;48.868;9.080;2023-04-04T01:33:45;98815.47;;;-1.41;66.52
77574;BME280;66710;48.868;9.080;2023-04-04T01:36:18;98812.81;;;-1.41;65.93
77574;BME280;66710;48.868;9.080;2023-04-04T01:38:53;98819.34;;;-1.44;66.73
77574;BME280;66710;48.868;9.080;2023-04-04T01:41:24;98820.22;;;-1.51;66.55
77574;BME280;66710;48.868;9.080;2023-04-04T01:43:50;98822.06;;;-1.52;67.10
77574;BME280;66710;48.868;9.080;2023-04-04T01:46:16;98817.38;;;-1.50;66.60
77574;BME280;66710;48.868;9.080;2023-04-04T01:48:44;98816.53;;;-1.50;66.71
77574;BME280;66710;48.868;9.080;2023-04-04T01:51:10;98809.06;;;-1.55;66.98
77574;BME280;66710;48.868;9.080;2023-04-04T01:53:35;98810.22;;;-1.58;66.87
77574;BME280;66710;48.868;9.080;2023-04-04T01:56:01;98806.56;;;-1.57;67.10
77574;BME280;66710;48.868;9.080;2023-04-04T01:58:26;98798.38;;;-1.55;66.57
77574;BME280;66710;48.868;9.080;2023-04-04T02:00:52;98802.34;;;-1.51;66.80
77574;BME280;66710;48.868;9.080;2023-04-04T02:03:17;98796.19;;;-1.51;66.62
77574;BME280;66710;48.868;9.080;2023-04-04T02:05:42;98791.53;;;-1.58;66.56
77574;BME280;66710;48.868;9.080;2023-04-04T02:08:07;98805.78;;;-1.65;67.29
77574;BME280;66710;48.868;9.080;2023-04-04T02:10:33;98803.13;;;-1.74;67.67
77574;BME280;66710;48.868;9.080;2023-04-04T02:12:58;98797.31;;;-1.77;68.13
77574;BME280;66710;48.868;9.080;2023-04-04T02:15:23;98805.34;;;-1.85;68.44
77574;BME280;66710;48.868;9.080;2023-04-04T02:17:49;98805.66;;;-1.80;68.04
77574;BME280;66710;48.868;9.080;2023-04-04T02:20:15;98815.00;;;-1.76;67.67
77574;BME280;66710;48.868;9.080;2023-04-04T02:22:42;98812.34;;;-1.76;68.12
77574;BME280;66710;48.868;9.080;2023-04-04T02:25:14;98815.81;;;-1.76;67.69
77574;BME280;66710;48.868;9.080;2023-04-04T02:27:39;98809.00;;;-1.78;67.72
77574;BME280;66710;48.868;9.080;2023-04-04T02:30:05;98811.69;;;-1.78;67.38
77574;BME280;66710;48.868;9.080;2023-04-04T02:32:30;98806.84;;;-1.83;67.85
77574;BME280;66710;48.868;9.080;2023-04-04T02:34:55;98806.19;;;-1.85;68.13
77574;BME280;66710;48.868;9.080;2023-04-04T02:37:21;98809.38;;;-1.89;67.54
77574;BME280;66710;48.868;9.080;2023-04-04T02:39:46;98810.88;;;-1.87;68.18
77574;BME280;66710;48.868;9.080;2023-04-04T02:42:11;98805.22;;;-1.92;68.05
77574;BME280;66710;48.868;9.080;2023-04-04T02:44:37;98797.19;;;-1.92;67.82
77574;BME280;66710;48.868;9.080;2023-04-04T02:47:02;98803.19;;;-1.90;68.09
77574;BME280;66710;48.868;9.080;2023-04-04T02:49:27;98803.38;;;-1.92;68.33
77574;BME280;66710;48.868;9.080;2023-04-04T02:51:53;98794.69;;;-1.94;67.98
77574;BME280;66710;48.868;9.080;2023-04-04T02:54:19;98791.88;;;-1.92;67.90
77574;BME280;66710;48.868;9.080;2023-04-04T02:56:44;98796.19;;;-1.91;68.22
77574;BME280;66710;48.868;9.080;2023-04-04T02:59:09;98794.16;;;-1.89;67.84
77574;BME280;66710;48.868;9.080;2023-04-04T03:01:35;98786.34;;;-1.91;68.07
77574;BME280;66710;48.868;9.080;2023-04-04T03:04:00;98795.88;;;-1.96;67.57
77574;BME280;66710;48.868;9.080;2023-04-04T03:06:30;98797.72;;;-1.97;68.10
77574;BME280;66710;48.868;9.080;2023-04-04T03:08:55;98787.03;;;-1.97;67.65
77574;BME280;66710;48.868;9.080;2023-04-04T03:11:21;98793.06;;;-2.03;68.55
77574;BME280;66710;48.868;9.080;2023-04-04T03:13:46;98792.22;;;-2.03;68.13
77574;BME280;66710;48.868;9.080;2023-04-04T03:16:12;98787.59;;;-2.10;68.61
77574;BME280;66710;48.868;9.080;2023-04-04T03:18:39;98785.75;;;-2.09;68.69
77574;BME280;66710;48.868;9.080;2023-04-04T03:21:04;98789.09;;;-2.15;68.42
77574;BME280;66710;48.868;9.080;2023-04-04T03:23:30;98790.25;;;-2.18;68.87
77574;BME280;66710;48.868;9.080;2023-04-04T03:25:55;98790.91;;;-2.16;69.21
77574;BME280;66710;48.868;9.080;2023-04-04T03:28:20;98787.25;;;-2.15;69.22
77574;BME280;66710;48.868;9.080;2023-04-04T03:30:46;98783.28;;;-2.19;68.76
77574;BME280;66710;48.868;9.080;2023-04-04T03:33:11;98783.63;;;-2.22;68.81
77574;BME280;66710;48.868;9.080;2023-04-04T03:35:38;98785.25;;;-2.21;69.13
77574;BME280;66710;48.868;9.080;2023-04-04T03:38:04;98788.41;;;-2.17;68.94
77574;BME280;66710;48.868;9.080;2023-04-04T03:40:29;98789.13;;;-2.32;69.13
77574;BME280;66710;48.868;9.080;2023-04-04T03:42:55;98782.16;;;-2.41;69.91
77574;BME280;66710;48.868;9.080;2023-04-04T03:45:20;98787.31;;;-2.39;70.31
77574;BME280;66710;48.868;9.080;2023-04-04T03:47:45;98787.81;;;-2.44;69.50
77574;BME280;66710;48.868;9.080;2023-04-04T03:50:11;98786.84;;;-2.43;70.01
77574;BME280;66710;48.868;9.080;2023-04-04T03:52:37;98787.16;;;-2.46;70.00
77574;BME280;66710;48.868;9.080;2023-04-04T03:55:05;98787.66;;;-2.42;70.35
77574;BME280;66710;48.868;9.080;2023-04-04T03:57:34;98788.84;;;-2.45;69.92
77574;BME280;66710;48.868;9.080;2023-04-04T04:00:00;98783.84;;;-2.40;69.88
77574;BME280;66710;48.868;9.080;2023-04-04T04:02:25;98791.50;;;-2.45;70.16
77574;BME280;66710;48.868;9.080;2023-04-04T04:04:51;98788.50;;;-2.50;70.54
77574;BME280;66710;48.868;9.080;2023-04-04T04:07:16;98786.66;;;-2.50;70.53
77574;BME280;66710;48.868;9.080;2023-04-04T04:09:41;98789.34;;;-2.50;70.54
77574;BME280;66710;48.868;9.080;2023-04-04T04:12:07;98792.84;;;-2.57;70.33
77574;BME280;66710;48.868;9.080;2023-04-04T04:14:32;98790.84;;;-2.55;70.92
77574;BME280;66710;48.868;9.080;2023-04-04T04:16:57;98796.84;;;-2.53;70.92
77574;BME280;66710;48.868;9.080;2023-04-04T04:19:23;98787.34;;;-2.56;70.75
77574;BME280;66710;48.868;9.080;2023-04-04T04:21:48;98795.19;;;-2.62;70.80
77574;BME280;66710;48.868;9.080;2023-04-04T04:24:13;98795.00;;;-2.53;70.86
77574;BME280;66710;48.868;9.080;2023-04-04T04:26:39;98803.53;;;-2.57;70.73
77574;BME280;66710;48.868;9.080;2023-04-04T04:29:05;98804.84;;;-2.61;71.14
77574;BME280;66710;48.868;9.080;2023-04-04T04:31:31;98801.03;;;-2.67;71.22
77574;BME280;66710;48.868;9.080;2023-04-04T04:33:57;98794.19;;;-2.70;71.39
77574;BME280;66710;48.868;9.080;2023-04-04T04:36:22;98800.03;;;-2.66;71.00
77574;BME280;66710;48.868;9.080;2023-04-04T04:38:47;98803.53;;;-2.82;71.33
77574;BME280;66710;48.868;9.080;2023-04-04T04:41:13;98797.88;;;-2.87;71.52
77574;BME280;66710;48.868;9.080;2023-04-04T04:43:38;98806.00;;;-2.97;72.97
77574;BME280;66710;48.868;9.080;2023-04-04T04:46:05;98798.50;;;-3.18;73.18
77574;BME280;66710;48.868;9.080;2023-04-04T04:48:31;98798.16;;;-3.23;74.27
77574;BME280;66710;48.868;9.080;2023-04-04T04:50:57;98798.66;;;-3.28;75.04
77574;BME280;66710;48.868;9.080;2023-04-04T04:53:22;98800.00;;;-3.32;75.27
77574;BME280;66710;48.868;9.080;2023-04-04T04:55:47;98792.19;;;-3.17;74.73
77574;BME280;66710;48.868;9.080;2023-04-04T04:58:12;98795.88;;;-3.01;73.97
77574;BME280;66710;48.868;9.080;2023-04-04T05:00:40;98802.34;;;-2.96;73.12
77574;BME280;66710;48.868;9.080;2023-04-04T05:03:06;98794.38;;;-3.12;74.21
77574;BME280;66710;48.868;9.080;2023-04-04T05:05:34;98805.69;;;-3.10;73.22
77574;BME280;66710;48.868;9.080;2023-04-04T05:08:01;98803.69;;;-3.08;73.92
77574;BME280;66710;48.868;9.080;2023-04-04T05:10:27;98810.34;;;-3.04;74.22
77574;BME280;66710;48.868;9.080;2023-04-04T05:12:52;98813.16;;;-3.06;73.41
77574;BME280;66710;48.868;9.080;2023-04-04T05:15:18;98808.50;;;-3.12;73.86
77574;BME280;66710;48.868;9.080;2023-04-04T05:17:43;98807.34;;;-3.01;74.44
77574;BME280;66710;48.868;9.080;2023-04-04T05:20:09;98814.00;;;-2.97;73.70
77574;BME280;66710;48.868;9.080;2023-04-04T05:22:34;98818.50;;;-2.97;73.30
77574;BME280;66710;48.868;9.080;2023-04-04T05:24:59;98810.53;;;-2.89;73.49
77574;BME280;66710;48.868;9.080;2023-04-04T05:27:24;98812.34;;;-2.98;72.90
77574;BME280;66710;48.868;9.080;2023-04-04T05:29:50;98815.16;;;-2.91;73.31
77574;BME280;66710;48.868;9.080;2023-04-04T05:32:15;98821.84;;;-2.87;72.64
77574;BME280;66710;48.868;9.080;2023-04-04T05:34:41;98816.34;;;-2.77;72.60
77574;BME280;66710;48.868;9.080;2023-04-04T05:37:06;98825.84;;;-2.83;72.62
77574;BME280;66710;48.868;9.080;2023-04-04T05:39:32;98818.03;;;-2.93;72.91
77574;BME280;66710;48.868;9.080;2023-04-04T05:41:57;98823.69;;;-2.96;72.11
77574;BME280;66710;48.868;9.080;2023-04-04T05:44:22;98818.03;;;-2.93;72.83
77574;BME280;66710;48.868;9.080;2023-04-04T05:46:47;98816.03;;;-2.91;72.57
77574;BME280;66710;48.868;9.080;2023-04-04T05:49:13;98828.00;;;-2.87;72.64
77574;BME280;66710;48.868;9.080;2023-04-04T05:51:38;98823.03;;;-2.81;71.89
77574;BME280;66710;48.868;9.080;2023-04-04T05:54:03;98823.19;;;-2.75;72.35
77574;BME280;66710;48.868;9.080;2023-04-04T05:56:31;98813.69;;;-2.69;72.87
77574;BME280;66710;48.868;9.080;2023-04-04T05:58:56;98820.34;;;-2.57;72.82
77574;BME280;66710;48.868;9.080;2023-04-04T06:01:22;98820.84;;;-2.45;71.94
77574;BME280;66710;48.868;9.080;2023-04-04T06:03:47;98836.00;;;-2.37;72.04
77574;BME280;66710;48.868;9.080;2023-04-04T06:06:13;98834.00;;;-2.27;71.57
77574;BME280;66710;48.868;9.080;2023-04-04T06:08:38;98826.75;;;-2.10;71.03
77574;BME280;66710;48.868;9.080;2023-04-04T06:11:03;98828.91;;;-1.97;71.09
77574;BME280;66710;48.868;9.080;2023-04-04T06:13:29;98826.03;;;-1.87;69.88
77574;BME280;66710;48.868;9.080;2023-04-04T06:15:54;98829.66;;;-1.72;70.01
77574;BME280;66710;48.868;9.080;2023-04-04T06:18:19;98825.94;;;-1.63;68.94
77574;BME280;66710;48.868;9.080;2023-04-04T06:20:45;98824.69;;;-1.44;68.87
77574;BME280;66710;48.868;9.080;2023-04-04T06:23:10;98823.28;;;-1.31;67.53
77574;BME280;66710;48.868;9.080;2023-04-04T06:25:36;98819.63;;;-1.30;67.71
77574;BME280;66710;48.868;9.080;2023-04-04T06:28:01;98821.66;;;-1.09;66.69
77574;BME280;66710;48.868;9.080;2023-04-04T06:30:28;98828.06;;;-0.96;66.19
77574;BME280;66710;48.868;9.080;2023-04-04T06:32:53;98824.81;;;-0.83;66.33
77574;BME280;66710;48.868;9.080;2023-04-04T06:35:18;98826.00;;;-0.85;65.00
77574;BME280;66710;48.868;9.080;2023-04-04T06:37:43;98822.00;;;-0.66;64.96
77574;BME280;66710;48.868;9.080;2023-04-04T06:40:09;98828.06;;;-0.72;64.57
77574;BME280;66710;48.868;9.080;2023-04-04T06:42:34;98821.66;;;-0.63;63.87
77574;BME280;66710;48.868;9.080;2023-04-04T06:44:59;98826.63;;;-0.37;63.46
77574;BME280;66710;48.868;9.080;2023-04-04T06:47:25;98820.75;;;-0.17;62.67
77574;BME280;66710;48.868;9.080;2023-04-04T06:49:51;98825.72;;;0.01;62.46
77574;BME280;66710;48.868;9.080;2023-04-04T06:52:16;98816.69;;;0.16;61.41
77574;BME280;66710;48.868;9.080;2023-04-04T06:54:42;98817.31;;;0.18;59.90
77574;BME280;66710;48.868;9.080;2023-04-04T06:57:07;98819.63;;;0.51;59.15
77574;BME280;66710;48.868;9.080;2023-04-04T06:59:32;98810.72;;;0.66;58.99
77574;BME280;66710;48.868;9.080;2023-04-04T07:01:58;98811.63;;;0.73;58.97
77574;BME280;66710;48.868;9.080;2023-04-04T07:04:23;98816.19;;;0.94;57.26
77574;BME280;66710;48.868;9.080;2023-04-04T07:06:48;98810.00;;;1.15;57.10
77574;BME280;66710;48.868;9.080;2023-04-04T07:09:13;98808.81;;;1.46;56.69
77574;BME280;66710;48.868;9.080;2023-04-04T07:11:39;98813.09;;;1.40;56.41
77574;BME280;66710;48.868;9.080;2023-04-04T07:14:04;98814.25;;;1.52;55.66
77574;BME280;66710;48.868;9.080;2023-04-04T07:16:29;98815.75;;;1.90;54.48
77574;BME280;66710;48.868;9.080;2023-04-04T07:18:55;98808.38;;;1.70;53.47
77574;BME280;66710;48.868;9.080;2023-04-04T07:21:20;98814.56;;;1.99;53.35
77574;BME280;66710;48.868;9.080;2023-04-04T07:23:46;98805.97;;;2.11;52.55
77574;BME280;66710;48.868;9.080;2023-04-04T07:26:11;98806.13;;;2.02;52.74
77574;BME280;66710;48.868;9.080;2023-04-04T07:28:37;98815.44;;;2.06;52.38
77574;BME280;66710;48.868;9.080;2023-04-04T07:31:02;98811.34;;;2.45;51.78
77574;BME280;66710;48.868;9.080;2023-04-04T07:33:27;98807.09;;;2.78;51.92
77574;BME280;66710;48.868;9.080;2023-04-04T07:35:53;98802.03;;;2.48;51.83
77574;BME280;66710;48.868;9.080;2023-04-04T07:38:18;98801.50;;;2.73;50.26
77574;BME280;66710;48.868;9.080;2023-04-04T07:40:44;98801.94;;;2.83;50.83
77574;BME280;66710;48.868;9.080;2023-04-04T07:43:09;98806.16;;;3.19;49.50
77574;BME280;66710;48.868;9.080;2023-04-04T07:45:34;98810.53;;;3.33;48.52
77574;BME280;66710;48.868;9.080;2023-04-04T07:48:00;98811.78;;;3.77;48.79
77574;BME280;66710;48.868;9.080;2023-04-04T07:50:26;98807.84;;;3.67;48.61
77574;BME280;66710;48.868;9.080;2023-04-04T07:52:51;98808.69;;;3.67;49.21
77574;BME280;66710;48.868;9.080;2023-04-04T07:55:18;98810.34;;;3.55;48.39
77574;BME280;66710;48.868;9.080;2023-04-04T07:57:44;98802.47;;;3.87;47.49
77574;BME280;66710;48.868;9.080;2023-04-04T08:00:10;98797.91;;;3.80;47.84
77574;BME280;66710;48.868;9.080;2023-04-04T08:02:36;98804.91;;;4.15;47.94
77574;BME280;66710;48.868;9.080;2023-04-04T08:05:02;98799.94;;;4.05;46.29
77574;BME280;66710;48.868;9.080;2023-04-04T08:07:27;98798.84;;;4.20;46.33
77574;BME280;66710;48.868;9.080;2023-04-04T08:09:52;98791.38;;;4.28;47.02
77574;BME280;66710;48.868;9.080;2023-04-04T08:12:18;98791.16;;;4.23;45.83
77574;BME280;66710;48.868;9.080;2023-04-04T08:14:43;98797.88;;;4.66;45.51
77574;BME280;66710;48.868;9.080;2023-04-04T08:17:08;98799.84;;;4.39;44.45
77574;BME280;66710;48.868;9.080;2023-04-04T08:19:34;98794.47;;;4.84;44.71
77574;BME280;66710;48.868;9.080;2023-04-04T08:21:59;98788.81;;;4.92;43.26
77574;BME280;66710;48.868;9.080;2023-04-04T08:24:24;98796.25;;;4.58;45.38
77574;BME280;66710;48.868;9.080;2023-04-04T08:26:49;98796.13;;;4.33;45.03
77574;BME280;66710;48.868;9.080;2023-04-04T08:29:15;98794.78;;;4.62;44.01
77574;BME280;66710;48.868;9.080;2023-04-04T08:31:41;98793.66;;;5.15;43.72
77574;BME280;66710;48.868;9.080;2023-04-04T08:34:06;98800.41;;;5.31;43.22
77574;BME280;66710;48.868;9.080;2023-04-04T08:36:33;98791.50;;;5.56;43.03
77574;BME280;66710;48.868;9.080;2023-04-04T08:38:58;98784.41;;;5.61;42.64
77574;BME280;66710;48.868;9.080;2023-04-04T08:41:24;98802.97;;;4.29;43.57
77574;BME280;66710;48.868;9.080;2023-04-04T08:43:52;98802.47;;;3.53;45.50
77574;BME280;66710;48.868;9.080;2023-04-04T08:46:21;98793.63;;;5.22;43.99
77574;BME280;66710;48.868;9.080;2023-04-04T08:48:51;98792.94;;;5.58;43.64
77574;BME280;66710;48.868;9.080;2023-04-04T08:51:18;98794.09;;;5.69;41.98
77574;BME280;66710;48.868;9.080;2023-04-04T08:53:44;98791.28;;;5.32;41.25
77574;BME280;66710;48.868;9.080;2023-04-04T08:56:10;98796.72;;;4.48;43.56
77574;BME280;66710;48.868;9.080;2023-04-04T08:58:35;98790.34;;;5.45;41.57
77574;BME280;66710;48.868;9.080;2023-04-04T09:01:04;98802.63;;;4.12;44.19
77574;BME280;66710;48.868;9.080;2023-04-04T09:03:30;98797.53;;;6.26;41.07
77574;BME280;66710;48.868;9.080;2023-04-04T09:05:57;98793.47;;;6.36;40.68
77574;BME280;66710;48.868;9.080;2023-04-04T09:08:22;98795.28;;;7.21;39.21
77574;BME280;66710;48.868;9.080;2023-04-04T09:10:50;98795.25;;;6.05;41.25
77574;BME280;66710;48.868;9.080;2023-04-04T09:13:15;98800.53;;;7.04;39.54
77574;BME280;66710;48.868;9.080;2023-04-04T09:15:48;98796.63;;;7.30;38.43
77574;BME280;66710;48.868;9.080;2023-04-04T09:18:14;98799.31;;;5.89;40.30
77574;BME280;66710;48.868;9.080;2023-04-04T09:20:45;98799.19;;;5.27;40.33
77574;BME280;66710;48.868;9.080;2023-04-04T09:23:12;98802.66;;;6.16;39.76
77574;BME280;66710;48.868;9.080;2023-04-04T09:25:58;98794.06;;;6.56;39.28
77574;BME280;66710;48.868;9.080;2023-04-04T09:28:23;98799.94;;;5.41;40.41
77574;BME280;66710;48.868;9.080;2023-04-04T09:30:52;98789.28;;;6.58;38.02
77574;BME280;66710;48.868;9.080;2023-04-04T09:33:19;98788.97;;;6.97;38.57
77574;BME280;66710;48.868;9.080;2023-04-04T09:35:49;98793.69;;;7.32;36.15
77574;BME280;66710;48.868;9.080;2023-04-04T09:38:20;98788.97;;;6.97;37.67
77574;BME280;66710;48.868;9.080;2023-04-04T09:40:46;98796.13;;;7.87;36.53
77574;BME280;66710;48.868;9.080;2023-04-04T09:43:12;98788.34;;;6.83;36.81
77574;BME280;66710;48.868;9.080;2023-04-04T09:45:40;98800.66;;;7.39;37.85
77574;BME280;66710;48.868;9.080;2023-04-04T09:48:06;98798.09;;;7.14;36.26
77574;BME280;66710;48.868;9.080;2023-04-04T09:50:36;98787.63;;;8.07;34.70
77574;BME280;66710;48.868;9.080;2023-04-04T09:53:02;98792.69;;;8.27;35.63
77574;BME280;66710;48.868;9.080;2023-04-04T09:55:34;98791.75;;;7.86;36.54
77574;BME280;66710;48.868;9.080;2023-04-04T09:58:11;98796.81;;;8.18;35.38
77574;BME280;66710;48.868;9.080;2023-04-04T10:00:39;98800.97;;;8.44;35.26
77574;BME280;66710;48.868;9.080;2023-04-04T10:03:06;98790.69;;;7.52;36.21
77574;BME280;66710;48.868;9.080;2023-04-04T10:05:31;98795.97;;;8.41;34.18
77574;BME280;66710;48.868;9.080;2023-04-04T10:07:56;98789.81;;;8.69;34.49
77574;BME280;66710;48.868;9.080;2023-04-04T10:10:23;98794.94;;;7.71;36.33
77574;BME280;66710;48.868;9.080;2023-04-04T10:12:51;98792.91;;;8.61;34.59
77574;BME280;66710;48.868;9.080;2023-04-04T10:15:16;98790.56;;;8.53;35.25
77574;BME280;66710;48.868;9.080;2023-04-04T10:17:43;98793.75;;;8.14;37.41
77574;BME280;66710;48.868;9.080;2023-04-04T10:20:10;98794.97;;;8.07;35.36
77574;BME280;66710;48.868;9.080;2023-04-04T10:22:36;98780.84;;;8.57;34.70
77574;BME280;66710;48.868;9.080;2023-04-04T10:25:03;98780.50;;;8.94;35.12
77574;BME280;66710;48.868;9.080;2023-04-04T10:27:29;98782.56;;;8.23;35.52
77574;BME280;66710;48.868;9.080;2023-04-04T10:29:55;98784.75;;;7.43;35.11
77574;BME280;66710;48.868;9.080;2023-04-04T10:35:01;98770.22;;;8.67;33.42
77574;BME280;66710;48.868;9.080;2023-04-04T10:37:31;98773.69;;;7.02;35.50
77574;BME280;66710;48.868;9.080;2023-04-04T10:40:08;98769.66;;;8.53;34.09
77574;BME280;66710;48.868;9.080;2023-04-04T10:42:39;98769.94;;;7.93;35.00
77574;BME280;66710;48.868;9.080;2023-04-04T10:45:07;98768.75;;;8.77;34.16
77574;BME280;66710;48.868;9.080;2023-04-04T10:47:34;98774.59;;;9.43;35.76
77574;BME280;66710;48.868;9.080;2023-04-04T10:50:02;98772.16;;;8.84;34.10
77574;BME280;66710;48.868;9.080;2023-04-04T10:52:29;98774.16;;;8.36;34.11
77574;BME280;66710;48.868;9.080;2023-04-04T10:55:03;98766.97;;;9.28;34.04
77574;BME280;66710;48.868;9.080;2023-04-04T10:57:31;98770.78;;;9.27;33.68
77574;BME280;66710;48.868;9.080;2023-04-04T11:00:08;98763.34;;;9.22;33.02
77574;BME280;66710;48.868;9.080;2023-04-04T11:05:29;98769.69;;;9.28;32.89
77574;BME280;66710;48.868;9.080;2023-04-04T11:07:57;98761.50;;;9.57;32.71
77574;BME280;66710;48.868;9.080;2023-04-04T11:10:32;98761.13;;;9.19;32.91
77574;BME280;66710;48.868;9.080;2023-04-04T11:13:01;98762.94;;;8.32;33.70
77574;BME280;66710;48.868;9.080;2023-04-04T11:15:52;98760.31;;;8.61;34.02
77574;BME280;66710;48.868;9.080;2023-04-04T11:18:21;98745.78;;;8.56;33.45
77574;BME280;66710;48.868;9.080;2023-04-04T11:20:47;98757.09;;;9.39;33.24
77574;BME280;66710;48.868;9.080;2023-04-04T11:23:16;98754.31;;;8.35;34.26
77574;BME280;66710;48.868;9.080;2023-04-04T11:25:51;98756.63;;;9.59;34.13
77574;BME280;66710;48.868;9.080;2023-04-04T11:28:47;98749.78;;;9.56;32.52
77574;BME280;66710;48.868;9.080;2023-04-04T11:34:06;98744.22;;;9.17;33.53
77574;BME280;66710;48.868;9.080;2023-04-04T11:44:20;98745.00;;;9.29;33.89
77574;BME280;66710;48.868;9.080;2023-04-04T11:46:46;98734.63;;;9.60;32.78
77574;BME280;66710;48.868;9.080;2023-04-04T11:49:13;98730.41;;;9.19;32.54
77574;BME280;66710;48.868;9.080;2023-04-04T11:51:39;98729.50;;;9.47;32.55
77574;BME280;66710;48.868;9.080;2023-04-04T11:54:05;98734.19;;;10.24;32.02
77574;BME280;66710;48.868;9.080;2023-04-04T11:56:40;98732.13;;;9.76;32.38
77574;BME280;66710;48.868;9.080;2023-04-04T11:59:06;98721.56;;;9.96;30.93
77574;BME280;66710;48.868;9.080;2023-04-04T12:01:31;98735.94;;;9.75;31.63
77574;BME280;66710;48.868;9.080;2023-04-04T12:03:58;98722.94;;;9.43;33.89
77574;BME280;66710;48.868;9.080;2023-04-04T12:06:24;98723.91;;;9.37;31.65
77574;BME280;66710;48.868;9.080;2023-04-04T12:08:51;98728.19;;;10.22;32.84
77574;BME280;66710;48.868;9.080;2023-04-04T12:11:16;98725.75;;;10.43;31.41
77574;BME280;66710;48.868;9.080;2023-04-04T12:13:43;98721.06;;;9.99;32.97
77574;BME280;66710;48.868;9.080;2023-04-04T12:16:09;98714.84;;;10.92;31.69
77574;BME280;66710;48.868;9.080;2023-04-04T12:18:35;98709.22;;;10.11;32.55
77574;BME280;66710;48.868;9.080;2023-04-04T12:21:01;98714.56;;;10.67;32.17
77574;BME280;66710;48.868;9.080;2023-04-04T12:23:26;98704.31;;;10.30;31.77
77574;BME280;66710;48.868;9.080;2023-04-04T12:25:54;98708.50;;;9.59;30.92
77574;BME280;66710;48.868;9.080;2023-04-04T12:28:21;98707.56;;;10.49;30.67
77574;BME280;66710;48.868;9.080;2023-04-04T12:30:48;98711.16;;;11.04;29.82
77574;BME280;66710;48.868;9.080;2023-04-04T12:33:13;98709.47;;;11.30;30.38
77574;BME280;66710;48.868;9.080;2023-04-04T12:35:38;98702.88;;;10.44;31.20
77574;BME280;66710;48.868;9.080;2023-04-04T12:38:05;98704.16;;;10.86;32.14
77574;BME280;66710;48.868;9.080;2023-04-04T12:40:36;98706.72;;;12.00;31.99
77574;BME280;66710;48.868;9.080;2023-04-04T12:43:05;98691.13;;;10.93;30.33
77574;BME280;66710;48.868;9.080;2023-04-04T12:45:31;98698.63;;;11.35;30.52
77574;BME280;66710;48.868;9.080;2023-04-04T12:47:56;98702.19;;;11.08;31.61
77574;BME280;66710;48.868;9.080;2023-04-04T12:50:25;98691.53;;;10.52;30.75
77574;BME280;66710;48.868;9.080;2023-04-04T12:52:51;98688.16;;;11.27;30.69
77574;BME280;66710;48.868;9.080;2023-04-04T12:55:22;98682.50;;;10.30;30.20
77574;BME280;66710;48.868;9.080;2023-04-04T12:57:48;98680.41;;;11.13;29.49
77574;BME280;66710;48.868;9.080;2023-04-04T13:00:14;98668.31;;;10.72;30.47
77574;BME280;66710;48.868;9.080;2023-04-04T13:02:43;98674.31;;;10.74;31.01
77574;BME280;66710;48.868;9.080;2023-04-04T13:05:10;98669.66;;;10.25;32.05
77574;BME280;66710;48.868;9.080;2023-04-04T13:07:37;98663.97;;;10.76;29.87
77574;BME280;66710;48.868;9.080;2023-04-04T13:10:08;98667.81;;;10.53;29.13
77574;BME280;66710;48.868;9.080;2023-04-04T13:15:17;98666.22;;;9.91;32.94
77574;BME280;66710;48.868;9.080;2023-04-04T13:17:47;98667.78;;;10.25;31.30
77574;BME280;66710;48.868;9.080;2023-04-04T13:20:17;98673.28;;;11.07;32.61
77574;BME280;66710;48.868;9.080;2023-04-04T13:22:43;98665.97;;;10.31;30.46